sensor_id;sensor_type;location;lat;lon;timestamp;pressure;altitude;pressure_sealevel;temperature;humidity
63347;BME280;49472;49.880;8.650;2023-05-02T00:02:07;-5226.31;;;-142.94;100.00
63347;BME280;49472;49.880;8.650;2023-05-02T00:04:33;-4737.19;;;-142.94;100.00
63347;BME280;49472;49.880;8.650;2023-05-02T00:06:58;-2780.03;;;-142.94;100.00
63347;BME280;49472;49.880;8.650;2023-05-02T00:09:23;-3514.09;;;-142.94;100.00
63347;BME280;49472;49.880;8.650;2023-05-02T00:11:49;-3514.09;;;-142.94;100.00
63347;BME280;49472;49.880;8.650;2023-05-02T00:14:14;-3758.75;;;-142.94;100.00
63347;BME280;49472;49.880;8.650;2023-05-02T00:16:39;-3269.44;;;-142.94;100.00
63347;BME280;49472;49.880;8.650;2023-05-02T00:19:05;-3514.09;;;-142.94;100.00
63347;BME280;49472;49.880;8.650;2023-05-02T00:21:30;-5470.81;;;-142.94;100.00
63347;BME280;49472;49.880;8.650;2023-05-02T00:23:57;-6937.59;;;-142.94;100.00
63347;BME280;49472;49.880;8.650;2023-05-02T00:26:22;-9869.19;;;-142.94;100.00
63347;BME280;49472;49.880;8.650;2023-05-02T00:28:48;-10357.50;;;-142.94;100.00
63347;BME280;49472;49.880;8.650;2023-05-02T00:31:14;-12310.13;;;-142.94;100.00
63347;BME280;49472;49.880;8.650;2023-05-02T00:33:39;-11333.97;;;-142.94;100.00
63347;BME280;49472;49.880;8.650;2023-05-02T00:36:12;-12554.13;;;-142.94;100.00
63347;BME280;49472;49.880;8.650;2023-05-02T00:38:38;-13042.06;;;-142.94;100.00
63347;BME280;49472;49.880;8.650;2023-05-02T00:41:03;-13286.00;;;-142.94;100.00
63347;BME280;49472;49.880;8.650;2023-05-02T00:43:29;-13042.06;;;-142.94;100.00
63347;BME280;49472;49.880;8.650;2023-05-02T00:45:55;-13531.38;;;-142.94;100.00
63347;BME280;49472;49.880;8.650;2023-05-02T00:48:20;-13531.38;;;-142.94;100.00
63347;BME280;49472;49.880;8.650;2023-05-02T00:50:47;-13531.38;;;-142.94;100.00
63347;BME280;49472;49.880;8.650;2023-05-02T00:53:12;-13529.94;;;-142.94;100.00
63347;BME280;49472;49.880;8.650;2023-05-02T00:55:38;-13531.38;;;-142.94;100.00
63347;BME280;49472;49.880;8.650;2023-05-02T00:58:14;-13529.94;;;-142.94;100.00
63347;BME280;49472;49.880;8.650;2023-05-02T01:09:33;-13531.38;;;-142.94;100.00
63347;BME280;49472;49.880;8.650;2023-05-02T01:12:04;-13531.38;;;-142.94;100.00
63347;BME280;49472;49.880;8.650;2023-05-02T01:14:40;-13531.38;;;-142.94;100.00
63347;BME280;49472;49.880;8.650;2023-05-02T01:17:10;-13531.38;;;-142.94;100.00
63347;BME280;49472;49.880;8.650;2023-05-02T01:19:40;-13531.38;;;-142.94;100.00
63347;BME280;49472;49.880;8.650;2023-05-02T01:22:07;-13531.38;;;-142.94;100.00
63347;BME280;49472;49.880;8.650;2023-05-02T01:27:26;-13531.38;;;-142.94;100.00
63347;BME280;49472;49.880;8.650;2023-05-02T01:29:52;-13531.38;;;-142.94;100.00
63347;BME280;49472;49.880;8.650;2023-05-02T01:32:20;-13531.38;;;-142.94;100.00
63347;BME280;49472;49.880;8.650;2023-05-02T01:34:48;-13531.38;;;-142.94;100.00
63347;BME280;49472;49.880;8.650;2023-05-02T01:37:16;-13531.38;;;-142.94;100.00
63347;BME280;49472;49.880;8.650;2023-05-02T01:39:43;-13531.38;;;-142.94;100.00
63347;BME280;49472;49.880;8.650;2023-05-02T01:42:10;-13531.38;;;-142.94;100.00
63347;BME280;49472;49.880;8.650;2023-05-02T01:44:36;-13531.38;;;-142.94;100.00
63347;BME280;49472;49.880;8.650;2023-05-02T01:47:04;-13531.38;;;-142.94;100.00
63347;BME280;49472;49.880;8.650;2023-05-02T01:49:32;-13531.38;;;-142.94;100.00
63347;BME280;49472;49.880;8.650;2023-05-02T01:52:02;-13531.38;;;-142.94;100.00
63347;BME280;49472;49.880;8.650;2023-05-02T01:54:29;-13531.38;;;-142.94;100.00
63347;BME280;49472;49.880;8.650;2023-05-02T01:56:57;-13531.38;;;-142.94;100.00
63347;BME280;49472;49.880;8.650;2023-05-02T01:59:24;-13531.38;;;-142.94;100.00
63347;BME280;49472;49.880;8.650;2023-05-02T02:01:51;-13531.38;;;-142.94;100.00
63347;BME280;49472;49.880;8.650;2023-05-02T02:04:18;-13531.38;;;-142.94;100.00
63347;BME280;49472;49.880;8.650;2023-05-02T02:06:47;-13531.38;;;-142.94;100.00
63347;BME280;49472;49.880;8.650;2023-05-02T02:09:14;-13531.38;;;-142.94;100.00
63347;BME280;49472;49.880;8.650;2023-05-02T02:11:45;-13531.38;;;-142.94;100.00
63347;BME280;49472;49.880;8.650;2023-05-02T02:14:16;-13531.38;;;-142.94;100.00
63347;BME280;49472;49.880;8.650;2023-05-02T02:16:43;-13531.38;;;-142.94;100.00
63347;BME280;49472;49.880;8.650;2023-05-02T02:19:12;-13531.38;;;-142.94;100.00
63347;BME280;49472;49.880;8.650;2023-05-02T02:21:41;-13531.38;;;-142.94;100.00
63347;BME280;49472;49.880;8.650;2023-05-02T02:24:08;-13531.38;;;-142.94;100.00
63347;BME280;49472;49.880;8.650;2023-05-02T02:26:34;-13531.38;;;-142.94;100.00
63347;BME280;49472;49.880;8.650;2023-05-02T02:29:00;-13531.38;;;-142.94;100.00
63347;BME280;49472;49.880;8.650;2023-05-02T02:31:33;-13531.38;;;-142.94;100.00
63347;BME280;49472;49.880;8.650;2023-05-02T02:33:59;-13531.38;;;-142.94;100.00
63347;BME280;49472;49.880;8.650;2023-05-02T02:36:33;-13531.38;;;-142.94;100.00
63347;BME280;49472;49.880;8.650;2023-05-02T02:39:17;-13531.38;;;-142.94;100.00
63347;BME280;49472;49.880;8.650;2023-05-02T02:47:20;-13531.38;;;-142.94;100.00
63347;BME280;49472;49.880;8.650;2023-05-02T02:52:54;-13531.38;;;-142.94;100.00
63347;BME280;49472;49.880;8.650;2023-05-02T02:58:16;-13531.38;;;-142.94;100.00
63347;BME280;49472;49.880;8.650;2023-05-02T03:00:45;-13531.38;;;-142.94;100.00
63347;BME280;49472;49.880;8.650;2023-05-02T03:03:13;-13531.38;;;-142.94;100.00
63347;BME280;49472;49.880;8.650;2023-05-02T03:05:39;-13531.38;;;-142.94;100.00
63347;BME280;49472;49.880;8.650;2023-05-02T03:08:05;-13531.38;;;-142.94;100.00
63347;BME280;49472;49.880;8.650;2023-05-02T03:10:30;-13531.38;;;-142.94;100.00
63347;BME280;49472;49.880;8.650;2023-05-02T03:12:57;-13531.38;;;-142.94;100.00
63347;BME280;49472;49.880;8.650;2023-05-02T03:18:16;-13531.38;;;-142.94;100.00
63347;BME280;49472;49.880;8.650;2023-05-02T03:20:41;-13531.38;;;-142.94;100.00
63347;BME280;49472;49.880;8.650;2023-05-02T03:23:06;-13531.38;;;-142.94;100.00
63347;BME280;49472;49.880;8.650;2023-05-02T03:25:32;-13531.38;;;-142.94;100.00
63347;BME280;49472;49.880;8.650;2023-05-02T03:27:57;-13531.38;;;-142.94;100.00
63347;BME280;49472;49.880;8.650;2023-05-02T03:30:22;-13531.38;;;-142.94;100.00
63347;BME280;49472;49.880;8.650;2023-05-02T03:32:48;-13531.38;;;-142.94;100.00
63347;BME280;49472;49.880;8.650;2023-05-02T03:35:13;-13531.38;;;-142.94;100.00
63347;BME280;49472;49.880;8.650;2023-05-02T03:37:39;-13531.38;;;-142.94;100.00
63347;BME280;49472;49.880;8.650;2023-05-02T03:40:05;-13531.38;;;-142.94;100.00
63347;BME280;49472;49.880;8.650;2023-05-02T03:42:30;-13531.38;;;-142.94;100.00
63347;BME280;49472;49.880;8.650;2023-05-02T03:44:56;-13531.38;;;-142.94;100.00
63347;BME280;49472;49.880;8.650;2023-05-02T03:47:21;-13531.38;;;-142.94;100.00
63347;BME280;49472;49.880;8.650;2023-05-02T03:49:46;-13531.38;;;-142.94;100.00
63347;BME280;49472;49.880;8.650;2023-05-02T03:52:12;-13531.38;;;-142.94;100.00
63347;BME280;49472;49.880;8.650;2023-05-02T03:54:37;-13531.38;;;-142.94;100.00
63347;BME280;49472;49.880;8.650;2023-05-02T03:57:02;-13531.38;;;-142.94;100.00
63347;BME280;49472;49.880;8.650;2023-05-02T03:59:32;-13531.38;;;-142.94;100.00
63347;BME280;49472;49.880;8.650;2023-05-02T04:01:58;-13531.38;;;-142.94;100.00
63347;BME280;49472;49.880;8.650;2023-05-02T04:04:23;-13531.38;;;-142.94;100.00
63347;BME280;49472;49.880;8.650;2023-05-02T04:06:48;-13531.38;;;-142.94;100.00
63347;BME280;49472;49.880;8.650;2023-05-02T04:09:13;-13531.38;;;-142.94;100.00
63347;BME280;49472;49.880;8.650;2023-05-02T04:11:39;-13531.38;;;-142.94;100.00
63347;BME280;49472;49.880;8.650;2023-05-02T04:14:06;-13531.38;;;-142.94;100.00
63347;BME280;49472;49.880;8.650;2023-05-02T04:16:31;-13531.38;;;-142.94;100.00
63347;BME280;49472;49.880;8.650;2023-05-02T04:18:56;-13531.38;;;-142.94;100.00
63347;BME280;49472;49.880;8.650;2023-05-02T04:21:21;-13531.38;;;-142.94;100.00
63347;BME280;49472;49.880;8.650;2023-05-02T04:23:47;-13531.38;;;-142.94;100.00
63347;BME280;49472;49.880;8.650;2023-05-02T04:26:13;-13531.38;;;-142.94;100.00
63347;BME280;49472;49.880;8.650;2023-05-02T04:28:38;-13531.38;;;-142.94;100.00
63347;BME280;49472;49.880;8.650;2023-05-02T04:31:04;-13531.38;;;-142.94;100.00
63347;BME280;49472;49.880;8.650;2023-05-02T04:33:29;-13531.38;;;-142.94;100.00
63347;BME280;49472;49.880;8.650;2023-05-02T04:35:55;-13531.38;;;-142.94;100.00
63347;BME280;49472;49.880;8.650;2023-05-02T04:38:21;-13531.38;;;-142.94;100.00
63347;BME280;49472;49.880;8.650;2023-05-02T04:40:49;-13531.38;;;-142.94;100.00
63347;BME280;49472;49.880;8.650;2023-05-02T04:43:15;-13531.38;;;-142.94;100.00
63347;BME280;49472;49.880;8.650;2023-05-02T04:45:40;-13531.38;;;-142.94;100.00
63347;BME280;49472;49.880;8.650;2023-05-02T04:48:05;-13531.38;;;-142.94;100.00
63347;BME280;49472;49.880;8.650;2023-05-02T04:50:31;-13531.38;;;-142.94;100.00
63347;BME280;49472;49.880;8.650;2023-05-02T04:52:56;-13531.38;;;-142.94;100.00
63347;BME280;49472;49.880;8.650;2023-05-02T04:55:21;-13531.38;;;-142.94;100.00
63347;BME280;49472;49.880;8.650;2023-05-02T04:57:47;-13531.38;;;-142.94;100.00
63347;BME280;49472;49.880;8.650;2023-05-02T05:00:12;-13531.38;;;-142.94;100.00
63347;BME280;49472;49.880;8.650;2023-05-02T05:02:38;-13531.38;;;-142.94;100.00
63347;BME280;49472;49.880;8.650;2023-05-02T05:05:04;-13531.38;;;-142.94;100.00
63347;BME280;49472;49.880;8.650;2023-05-02T05:07:30;-13531.38;;;-142.94;100.00
63347;BME280;49472;49.880;8.650;2023-05-02T05:09:55;-13531.38;;;-142.94;100.00
63347;BME280;49472;49.880;8.650;2023-05-02T05:12:20;-13531.38;;;-142.94;100.00
63347;BME280;49472;49.880;8.650;2023-05-02T05:14:46;-13531.38;;;-142.94;100.00
63347;BME280;49472;49.880;8.650;2023-05-02T05:17:11;-13531.38;;;-142.94;100.00
63347;BME280;49472;49.880;8.650;2023-05-02T05:19:37;-13531.38;;;-142.94;100.00
63347;BME280;49472;49.880;8.650;2023-05-02T05:22:02;-13531.38;;;-142.94;100.00
63347;BME280;49472;49.880;8.650;2023-05-02T05:24:28;-13531.38;;;-142.94;100.00
63347;BME280;49472;49.880;8.650;2023-05-02T05:26:53;-13531.38;;;-142.94;100.00
63347;BME280;49472;49.880;8.650;2023-05-02T05:29:18;-13531.38;;;-142.94;100.00
63347;BME280;49472;49.880;8.650;2023-05-02T05:31:43;-13531.38;;;-142.94;100.00
63347;BME280;49472;49.880;8.650;2023-05-02T05:34:09;-13531.38;;;-142.94;100.00
63347;BME280;49472;49.880;8.650;2023-05-02T05:36:34;-13531.38;;;-142.94;100.00
63347;BME280;49472;49.880;8.650;2023-05-02T05:39:00;-13531.38;;;-142.94;100.00
63347;BME280;49472;49.880;8.650;2023-05-02T05:41:25;-13531.38;;;-142.94;100.00
63347;BME280;49472;49.880;8.650;2023-05-02T05:43:51;-13531.38;;;-142.94;100.00
63347;BME280;49472;49.880;8.650;2023-05-02T05:46:16;-13531.38;;;-142.94;100.00
63347;BME280;49472;49.880;8.650;2023-05-02T05:48:41;-13531.38;;;-142.94;100.00
63347;BME280;49472;49.880;8.650;2023-05-02T05:51:07;-13531.38;;;-142.94;100.00
63347;BME280;49472;49.880;8.650;2023-05-02T05:53:32;-13531.38;;;-142.94;100.00
63347;BME280;49472;49.880;8.650;2023-05-02T05:55:58;-13531.38;;;-142.94;100.00
63347;BME280;49472;49.880;8.650;2023-05-02T05:58:23;-13531.38;;;-142.94;100.00
63347;BME280;49472;49.880;8.650;2023-05-02T06:00:49;-13531.38;;;-142.94;100.00
63347;BME280;49472;49.880;8.650;2023-05-02T06:03:14;-13531.38;;;-142.94;100.00
63347;BME280;49472;49.880;8.650;2023-05-02T06:05:40;-13531.38;;;-142.94;100.00
63347;BME280;49472;49.880;8.650;2023-05-02T06:08:05;-13531.38;;;-142.94;100.00
63347;BME280;49472;49.880;8.650;2023-05-02T06:10:30;-13531.38;;;-142.94;100.00
63347;BME280;49472;49.880;8.650;2023-05-02T06:12:56;-13531.38;;;-142.94;100.00
63347;BME280;49472;49.880;8.650;2023-05-02T06:15:21;-13531.38;;;-142.94;100.00
63347;BME280;49472;49.880;8.650;2023-05-02T06:17:47;-13531.38;;;-142.94;100.00
63347;BME280;49472;49.880;8.650;2023-05-02T06:20:12;-13531.38;;;-142.94;100.00
63347;BME280;49472;49.880;8.650;2023-05-02T06:22:38;-13531.38;;;-142.94;100.00
63347;BME280;49472;49.880;8.650;2023-05-02T06:25:04;-13531.38;;;-142.94;100.00
63347;BME280;49472;49.880;8.650;2023-05-02T06:27:30;-13531.38;;;-142.94;100.00
63347;BME280;49472;49.880;8.650;2023-05-02T06:29:56;-13531.38;;;-142.94;100.00
63347;BME280;49472;49.880;8.650;2023-05-02T06:32:21;-13531.38;;;-142.94;100.00
63347;BME280;49472;49.880;8.650;2023-05-02T06:34:46;-13531.38;;;-142.94;100.00
63347;BME280;49472;49.880;8.650;2023-05-02T06:37:12;-13531.38;;;-142.94;100.00
63347;BME280;49472;49.880;8.650;2023-05-02T06:39:37;-13531.38;;;-142.94;100.00
63347;BME280;49472;49.880;8.650;2023-05-02T06:42:02;-13531.38;;;-142.94;100.00
63347;BME280;49472;49.880;8.650;2023-05-02T06:44:28;-13531.38;;;-142.94;100.00
63347;BME280;49472;49.880;8.650;2023-05-02T06:46:53;-13531.38;;;-142.94;100.00
63347;BME280;49472;49.880;8.650;2023-05-02T06:49:22;-13531.38;;;-142.94;100.00
63347;BME280;49472;49.880;8.650;2023-05-02T06:51:48;-13531.38;;;-142.94;100.00
63347;BME280;49472;49.880;8.650;2023-05-02T06:54:13;-13531.38;;;-142.94;100.00
63347;BME280;49472;49.880;8.650;2023-05-02T06:56:40;-13531.38;;;-142.94;100.00
63347;BME280;49472;49.880;8.650;2023-05-02T06:59:06;-13531.38;;;-142.94;100.00
63347;BME280;49472;49.880;8.650;2023-05-02T07:01:31;-13531.38;;;-142.94;100.00
63347;BME280;49472;49.880;8.650;2023-05-02T07:03:56;-13531.38;;;-142.94;100.00
63347;BME280;49472;49.880;8.650;2023-05-02T07:06:22;-13531.38;;;-142.94;100.00
63347;BME280;49472;49.880;8.650;2023-05-02T07:08:48;-13531.38;;;-142.94;100.00
63347;BME280;49472;49.880;8.650;2023-05-02T07:11:13;-13531.38;;;-142.94;100.00
63347;BME280;49472;49.880;8.650;2023-05-02T07:13:38;-13531.38;;;-142.94;100.00
63347;BME280;49472;49.880;8.650;2023-05-02T07:16:04;-13531.38;;;-142.94;100.00
63347;BME280;49472;49.880;8.650;2023-05-02T07:18:30;-13531.38;;;-142.94;100.00
63347;BME280;49472;49.880;8.650;2023-05-02T07:20:55;-13531.38;;;-142.94;100.00
63347;BME280;49472;49.880;8.650;2023-05-02T07:23:20;-13531.38;;;-142.94;100.00
63347;BME280;49472;49.880;8.650;2023-05-02T07:25:49;-13531.38;;;-142.94;100.00
63347;BME280;49472;49.880;8.650;2023-05-02T07:28:14;-13531.38;;;-142.94;100.00
63347;BME280;49472;49.880;8.650;2023-05-02T07:30:39;-13531.38;;;-142.94;100.00
63347;BME280;49472;49.880;8.650;2023-05-02T07:33:05;-13531.38;;;-142.94;100.00
63347;BME280;49472;49.880;8.650;2023-05-02T07:35:31;-13531.38;;;-142.94;100.00
63347;BME280;49472;49.880;8.650;2023-05-02T07:37:56;-13531.38;;;-142.94;100.00
63347;BME280;49472;49.880;8.650;2023-05-02T07:40:21;-13531.38;;;-142.94;100.00
63347;BME280;49472;49.880;8.650;2023-05-02T07:42:47;-13531.38;;;-142.94;100.00
63347;BME280;49472;49.880;8.650;2023-05-02T07:45:13;-13531.38;;;-142.94;100.00
63347;BME280;49472;49.880;8.650;2023-05-02T07:47:38;-13531.38;;;-142.94;100.00
63347;BME280;49472;49.880;8.650;2023-05-02T07:50:04;-13531.38;;;-142.94;100.00
63347;BME280;49472;49.880;8.650;2023-05-02T07:52:30;-13531.38;;;-142.94;100.00
63347;BME280;49472;49.880;8.650;2023-05-02T07:54:55;-13531.38;;;-142.94;100.00
63347;BME280;49472;49.880;8.650;2023-05-02T07:57:20;-13531.38;;;-142.94;100.00
63347;BME280;49472;49.880;8.650;2023-05-02T07:59:46;-13531.38;;;-142.94;100.00
63347;BME280;49472;49.880;8.650;2023-05-02T08:02:11;-13531.38;;;-142.94;100.00
63347;BME280;49472;49.880;8.650;2023-05-02T08:04:38;-13531.38;;;-142.94;100.00
63347;BME280;49472;49.880;8.650;2023-05-02T08:07:03;-13531.38;;;-142.94;100.00
63347;BME280;49472;49.880;8.650;2023-05-02T08:09:29;-13531.38;;;-142.94;100.00
63347;BME280;49472;49.880;8.650;2023-05-02T08:11:54;-13531.38;;;-142.94;100.00
63347;BME280;49472;49.880;8.650;2023-05-02T08:14:20;-13531.38;;;-142.94;100.00
63347;BME280;49472;49.880;8.650;2023-05-02T08:16:45;-13531.38;;;-142.94;100.00
63347;BME280;49472;49.880;8.650;2023-05-02T08:19:10;-13531.38;;;-142.94;100.00
63347;BME280;49472;49.880;8.650;2023-05-02T08:21:36;-13531.38;;;-142.94;100.00
63347;BME280;49472;49.880;8.650;2023-05-02T08:24:01;-13531.38;;;-142.94;100.00
63347;BME280;49472;49.880;8.650;2023-05-02T08:26:26;-13531.38;;;-142.94;100.00
63347;BME280;49472;49.880;8.650;2023-05-02T08:28:52;-13531.38;;;-142.94;100.00
63347;BME280;49472;49.880;8.650;2023-05-02T08:31:18;-13531.38;;;-142.94;100.00
63347;BME280;49472;49.880;8.650;2023-05-02T08:33:44;-13531.38;;;-142.94;100.00
63347;BME280;49472;49.880;8.650;2023-05-02T08:36:13;-13531.38;;;-142.94;100.00
63347;BME280;49472;49.880;8.650;2023-05-02T08:38:40;-13531.38;;;-142.94;100.00
63347;BME280;49472;49.880;8.650;2023-05-02T08:41:13;-13531.38;;;-142.94;100.00
63347;BME280;49472;49.880;8.650;2023-05-02T08:43:39;-13531.38;;;-142.94;100.00
63347;BME280;49472;49.880;8.650;2023-05-02T08:46:05;-13531.38;;;-142.94;100.00
63347;BME280;49472;49.880;8.650;2023-05-02T08:48:39;-13531.38;;;-142.94;100.00
63347;BME280;49472;49.880;8.650;2023-05-02T08:51:10;-13531.38;;;-142.94;100.00
63347;BME280;49472;49.880;8.650;2023-05-02T08:53:36;-13531.38;;;-142.94;100.00
63347;BME280;49472;49.880;8.650;2023-05-02T08:56:02;-13531.38;;;-142.94;100.00
63347;BME280;49472;49.880;8.650;2023-05-02T08:58:27;-13531.38;;;-142.94;100.00
63347;BME280;49472;49.880;8.650;2023-05-02T09:00:56;-13531.38;;;-142.94;100.00
63347;BME280;49472;49.880;8.650;2023-05-02T09:03:31;-13531.38;;;-142.94;100.00
63347;BME280;49472;49.880;8.650;2023-05-02T09:08:29;-13531.38;;;-142.94;100.00
63347;BME280;49472;49.880;8.650;2023-05-02T09:10:54;-13531.38;;;-142.94;100.00
63347;BME280;49472;49.880;8.650;2023-05-02T09:16:00;-13531.38;;;-142.94;100.00
63347;BME280;49472;49.880;8.650;2023-05-02T09:18:28;-13531.38;;;-142.94;100.00
63347;BME280;49472;49.880;8.650;2023-05-02T09:20:54;-13531.38;;;-142.94;100.00
63347;BME280;49472;49.880;8.650;2023-05-02T09:23:30;-13531.38;;;-142.94;100.00
63347;BME280;49472;49.880;8.650;2023-05-02T09:25:55;-13531.38;;;-142.94;100.00
63347;BME280;49472;49.880;8.650;2023-05-02T09:28:36;-13531.38;;;-142.94;99.75
63347;BME280;49472;49.880;8.650;2023-05-02T09:31:10;-13531.38;;;-142.94;100.00
63347;BME280;49472;49.880;8.650;2023-05-02T09:33:37;-13531.38;;;-142.94;100.00
63347;BME280;49472;49.880;8.650;2023-05-02T09:36:04;-13531.38;;;-142.94;100.00
63347;BME280;49472;49.880;8.650;2023-05-02T09:38:31;-13531.38;;;-142.94;100.00
63347;BME280;49472;49.880;8.650;2023-05-02T09:40:57;-13531.38;;;-142.94;99.97
63347;BME280;49472;49.880;8.650;2023-05-02T09:43:23;-13531.38;;;-142.94;99.93
63347;BME280;49472;49.880;8.650;2023-05-02T09:46:02;-13531.38;;;-142.94;99.12
63347;BME280;49472;49.880;8.650;2023-05-02T09:48:29;-13531.38;;;-142.94;97.44
63347;BME280;49472;49.880;8.650;2023-05-02T09:50:55;-13531.38;;;-142.94;96.36
63347;BME280;49472;49.880;8.650;2023-05-02T09:53:23;-13531.38;;;-142.94;96.47
63347;BME280;49472;49.880;8.650;2023-05-02T09:55:58;-13531.38;;;-142.94;98.75
63347;BME280;49472;49.880;8.650;2023-05-02T09:58:24;-13531.38;;;-142.94;99.96
63347;BME280;49472;49.880;8.650;2023-05-02T10:00:50;-13531.38;;;-142.94;100.00
63347;BME280;49472;49.880;8.650;2023-05-02T10:03:17;-13531.38;;;-142.94;98.61
63347;BME280;49472;49.880;8.650;2023-05-02T10:05:44;-13531.38;;;-142.94;97.81
63347;BME280;49472;49.880;8.650;2023-05-02T10:08:11;-13531.38;;;-142.94;96.73
63347;BME280;49472;49.880;8.650;2023-05-02T10:10:39;-13531.38;;;-142.94;93.60
63347;BME280;49472;49.880;8.650;2023-05-02T10:13:06;-13531.38;;;-142.94;92.79
63347;BME280;49472;49.880;8.650;2023-05-02T10:15:33;-13531.38;;;-142.94;91.50
63347;BME280;49472;49.880;8.650;2023-05-02T10:18:10;-13531.38;;;-142.94;88.86
63347;BME280;49472;49.880;8.650;2023-05-02T10:20:42;-13531.38;;;-142.94;89.83
63347;BME280;49472;49.880;8.650;2023-05-02T10:23:09;-13531.38;;;-142.94;92.82
63347;BME280;49472;49.880;8.650;2023-05-02T10:25:35;-13531.38;;;-142.94;92.62
63347;BME280;49472;49.880;8.650;2023-05-02T10:28:01;-13531.38;;;-142.94;91.97
63347;BME280;49472;49.880;8.650;2023-05-02T10:30:28;-13531.38;;;-142.94;89.85
63347;BME280;49472;49.880;8.650;2023-05-02T10:32:58;-13531.38;;;-142.94;88.63
63347;BME280;49472;49.880;8.650;2023-05-02T10:35:24;-13531.38;;;-142.94;85.59
63347;BME280;49472;49.880;8.650;2023-05-02T10:37:50;-13531.38;;;-142.94;85.90
63347;BME280;49472;49.880;8.650;2023-05-02T10:40:17;-13531.38;;;-142.94;87.48
63347;BME280;49472;49.880;8.650;2023-05-02T10:42:45;-13531.38;;;-142.94;87.35
63347;BME280;49472;49.880;8.650;2023-05-02T10:48:22;-13531.38;;;-142.94;86.94
63347;BME280;49472;49.880;8.650;2023-05-02T10:53:31;-13531.38;;;-142.94;85.68
63347;BME280;49472;49.880;8.650;2023-05-02T10:56:08;-13531.38;;;-142.94;81.26
63347;BME280;49472;49.880;8.650;2023-05-02T10:58:35;-13531.38;;;-142.94;79.48
63347;BME280;49472;49.880;8.650;2023-05-02T11:04:00;-13531.38;;;-142.94;80.52
63347;BME280;49472;49.880;8.650;2023-05-02T11:07:15;-13531.38;;;-142.94;86.23
63347;BME280;49472;49.880;8.650;2023-05-02T11:11:54;-13531.38;;;-142.94;88.81
63347;BME280;49472;49.880;8.650;2023-05-02T11:19:22;-13531.38;;;-142.94;89.85
63347;BME280;49472;49.880;8.650;2023-05-02T11:21:47;-13531.38;;;-142.94;90.14
63347;BME280;49472;49.880;8.650;2023-05-02T11:24:38;-13531.38;;;-142.94;89.16
63347;BME280;49472;49.880;8.650;2023-05-02T11:29:55;-13531.38;;;-142.94;72.00
63347;BME280;49472;49.880;8.650;2023-05-02T11:32:20;-10601.66;;;-142.94;67.61
63347;BME280;49472;49.880;8.650;2023-05-02T11:34:47;-6693.19;;;-142.94;64.86
63347;BME280;49472;49.880;8.650;2023-05-02T11:37:17;-1556.22;;;-142.94;62.22
63347;BME280;49472;49.880;8.650;2023-05-02T11:39:43;2118.00;;;-142.94;61.05
63347;BME280;49472;49.880;8.650;2023-05-02T11:42:26;1137.81;;;-142.94;62.96
63347;BME280;49472;49.880;8.650;2023-05-02T11:44:57;2853.34;;;-142.94;62.82
63347;BME280;49472;49.880;8.650;2023-05-02T11:47:24;-3514.09;;;-142.94;66.26
63347;BME280;49472;49.880;8.650;2023-05-02T11:49:50;-4003.41;;;-142.94;66.20
63347;BME280;49472;49.880;8.650;2023-05-02T11:52:16;7759.78;;;-142.94;60.83
63347;BME280;49472;49.880;8.650;2023-05-02T11:54:41;8496.38;;;-142.94;61.12
63347;BME280;49472;49.880;8.650;2023-05-02T11:57:07;14887.13;;;-142.94;58.84
63347;BME280;49472;49.880;8.650;2023-05-02T11:59:56;25730.41;;;-142.94;55.66
63347;BME280;49472;49.880;8.650;2023-05-02T12:02:40;39334.31;;;-142.94;52.56
63347;BME280;49472;49.880;8.650;2023-05-02T12:05:06;50408.81;;;-142.94;48.08
63347;BME280;49472;49.880;8.650;2023-05-02T12:07:41;52256.81;;;-142.94;43.74
63347;BME280;49472;49.880;8.650;2023-05-02T12:10:09;52262.66;;;-142.94;45.34
63347;BME280;49472;49.880;8.650;2023-05-02T12:12:36;52398.72;;;-142.94;44.93
63347;BME280;49472;49.880;8.650;2023-05-02T12:15:11;51875.88;;;-142.94;40.47
63347;BME280;49472;49.880;8.650;2023-05-02T12:17:40;51920.56;;;-142.94;40.62
63347;BME280;49472;49.880;8.650;2023-05-02T12:20:06;52081.88;;;-142.94;39.54
63347;BME280;49472;49.880;8.650;2023-05-02T12:22:33;51922.50;;;-142.94;40.33
63347;BME280;49472;49.880;8.650;2023-05-02T12:24:59;51594.06;;;-142.94;38.96
63347;BME280;49472;49.880;8.650;2023-05-02T12:27:24;51351.16;;;-142.94;37.91
63347;BME280;49472;49.880;8.650;2023-05-02T12:29:50;51611.56;;;-142.94;39.44
63347;BME280;49472;49.880;8.650;2023-05-02T12:32:29;51174.31;;;-142.94;37.13
63347;BME280;49472;49.880;8.650;2023-05-02T12:34:55;50612.81;;;-142.94;35.27
63347;BME280;49472;49.880;8.650;2023-05-02T12:37:22;50082.47;;;-142.94;33.31
63347;BME280;49472;49.880;8.650;2023-05-02T12:39:48;50772.13;;;-142.94;35.33
63347;BME280;49472;49.880;8.650;2023-05-02T12:42:16;52064.38;;;-142.94;40.33
63347;BME280;49472;49.880;8.650;2023-05-02T12:44:43;52768.06;;;-142.94;43.00
63347;BME280;49472;49.880;8.650;2023-05-02T12:47:10;53094.66;;;-142.94;44.75
63347;BME280;49472;49.880;8.650;2023-05-02T12:49:59;53189.94;;;-142.94;45.62
63347;BME280;49472;49.880;8.650;2023-05-02T12:52:47;53479.66;;;-142.94;48.30
63347;BME280;49472;49.880;8.650;2023-05-02T12:55:23;53448.53;;;-142.94;48.80
63347;BME280;49472;49.880;8.650;2023-05-02T12:57:49;53427.16;;;-142.94;51.11
63347;BME280;49472;49.880;8.650;2023-05-02T13:00:16;52888.59;;;-142.94;53.66
63347;BME280;49472;49.880;8.650;2023-05-02T13:02:42;53030.50;;;-142.94;53.22
63347;BME280;49472;49.880;8.650;2023-05-02T13:05:14;52855.53;;;-142.94;53.51
63347;BME280;49472;49.880;8.650;2023-05-02T13:07:39;51248.16;;;-142.94;54.48
63347;BME280;49472;49.880;8.650;2023-05-02T13:10:05;49993.13;;;-142.94;55.92
63347;BME280;49472;49.880;8.650;2023-05-02T13:12:31;52054.66;;;-142.94;52.51
63347;BME280;49472;49.880;8.650;2023-05-02T13:14:56;53102.44;;;-142.94;50.08
63347;BME280;49472;49.880;8.650;2023-05-02T13:17:21;49748.38;;;-142.94;57.17